Offutt AFB, Nebraska
Current Conditions -  °F | °C
As of 9:58 PM on Sunday 19 Oct 2014 (Local Time) from KOFF Reporting Station
Clear Clear  
Wind Chill: 49°   Ceiling: Unl
Heat Index: 49°   Visibility: 10mi
Dew Point: 49°   Wind: 2mph
Humidity: 99%   Direction: 140°SE
Pressure: 29.95"   Gusts: NA
Location:  41.13°N, 95.92°W
Report Text: KOFF 200258Z AUTO 14002KT 10SM CLR 10/09 A2995 RMK AO2 SLP148 T00950094 52003
Loading
Personal Weather Stations






























Interactive Weather Map
Tropical Storm Tracking
New forecast layout! Learn more

10-Day Weather Forecast

Advertisements
Track Severe Weather on mobile